sensor_id;sensor_type;location;lat;lon;timestamp;P1;durP1;ratioP1;P2;durP2;ratioP2
11211;SDS011;5663;50.864;12.096;2023-02-27T00:02:17;4.00;;;2.77;;
11211;SDS011;5663;50.864;12.096;2023-02-27T00:04:44;7.80;;;3.00;;
11211;SDS011;5663;50.864;12.096;2023-02-27T00:07:12;3.50;;;2.47;;
11211;SDS011;5663;50.864;12.096;2023-02-27T00:09:40;4.50;;;3.00;;
11211;SDS011;5663;50.864;12.096;2023-02-27T00:12:08;5.77;;;2.87;;
11211;SDS011;5663;50.864;12.096;2023-02-27T00:14:36;3.43;;;2.50;;
11211;SDS011;5663;50.864;12.096;2023-02-27T00:17:06;4.33;;;2.43;;
11211;SDS011;5663;50.864;12.096;2023-02-27T00:19:33;3.43;;;2.33;;
11211;SDS011;5663;50.864;12.096;2023-02-27T00:22:03;4.33;;;2.87;;
11211;SDS011;5663;50.864;12.096;2023-02-27T00:24:30;4.63;;;2.63;;
11211;SDS011;5663;50.864;12.096;2023-02-27T00:26:58;4.03;;;2.57;;
11211;SDS011;5663;50.864;12.096;2023-02-27T00:29:26;4.30;;;2.73;;
11211;SDS011;5663;50.864;12.096;2023-02-27T00:31:54;6.13;;;2.67;;
11211;SDS011;5663;50.864;12.096;2023-02-27T00:34:23;3.27;;;2.20;;
11211;SDS011;5663;50.864;12.096;2023-02-27T00:36:52;5.73;;;2.57;;
11211;SDS011;5663;50.864;12.096;2023-02-27T00:39:20;4.57;;;2.73;;
11211;SDS011;5663;50.864;12.096;2023-02-27T00:41:48;5.63;;;2.73;;
11211;SDS011;5663;50.864;12.096;2023-02-27T00:44:16;4.27;;;2.60;;
11211;SDS011;5663;50.864;12.096;2023-02-27T00:46:43;4.30;;;2.83;;
11211;SDS011;5663;50.864;12.096;2023-02-27T00:49:11;6.17;;;3.20;;
11211;SDS011;5663;50.864;12.096;2023-02-27T00:51:40;4.53;;;2.83;;
11211;SDS011;5663;50.864;12.096;2023-02-27T00:54:08;5.17;;;2.80;;
11211;SDS011;5663;50.864;12.096;2023-02-27T00:56:36;6.33;;;2.80;;
11211;SDS011;5663;50.864;12.096;2023-02-27T00:59:04;5.83;;;3.03;;
11211;SDS011;5663;50.864;12.096;2023-02-27T01:01:32;6.40;;;2.97;;
11211;SDS011;5663;50.864;12.096;2023-02-27T01:04:00;5.43;;;2.87;;
11211;SDS011;5663;50.864;12.096;2023-02-27T01:06:28;4.00;;;2.97;;
11211;SDS011;5663;50.864;12.096;2023-02-27T01:08:57;4.37;;;2.97;;
11211;SDS011;5663;50.864;12.096;2023-02-27T01:11:25;7.30;;;3.07;;
11211;SDS011;5663;50.864;12.096;2023-02-27T01:13:53;5.67;;;2.93;;
11211;SDS011;5663;50.864;12.096;2023-02-27T01:16:21;4.53;;;3.10;;
11211;SDS011;5663;50.864;12.096;2023-02-27T01:18:49;4.07;;;2.50;;
11211;SDS011;5663;50.864;12.096;2023-02-27T01:21:17;4.87;;;3.00;;
11211;SDS011;5663;50.864;12.096;2023-02-27T01:23:45;3.50;;;2.70;;
11211;SDS011;5663;50.864;12.096;2023-02-27T01:26:14;4.93;;;3.10;;
11211;SDS011;5663;50.864;12.096;2023-02-27T01:28:41;5.23;;;3.10;;
11211;SDS011;5663;50.864;12.096;2023-02-27T01:31:09;4.13;;;2.93;;
11211;SDS011;5663;50.864;12.096;2023-02-27T01:33:37;4.13;;;2.90;;
11211;SDS011;5663;50.864;12.096;2023-02-27T01:36:05;5.00;;;2.90;;
11211;SDS011;5663;50.864;12.096;2023-02-27T01:38:33;7.67;;;2.93;;
11211;SDS011;5663;50.864;12.096;2023-02-27T01:41:01;4.23;;;2.80;;
11211;SDS011;5663;50.864;12.096;2023-02-27T01:44:11;4.10;;;3.10;;
11211;SDS011;5663;50.864;12.096;2023-02-27T01:46:39;5.17;;;2.90;;
11211;SDS011;5663;50.864;12.096;2023-02-27T01:49:09;3.70;;;2.80;;
11211;SDS011;5663;50.864;12.096;2023-02-27T01:51:42;5.47;;;2.90;;
11211;SDS011;5663;50.864;12.096;2023-02-27T01:54:14;7.07;;;3.53;;
11211;SDS011;5663;50.864;12.096;2023-02-27T01:56:43;5.53;;;3.17;;
11211;SDS011;5663;50.864;12.096;2023-02-27T01:59:13;5.10;;;3.20;;
11211;SDS011;5663;50.864;12.096;2023-02-27T02:01:42;5.20;;;2.70;;
11211;SDS011;5663;50.864;12.096;2023-02-27T02:04:13;4.70;;;2.93;;
11211;SDS011;5663;50.864;12.096;2023-02-27T02:06:49;7.77;;;3.30;;
11211;SDS011;5663;50.864;12.096;2023-02-27T02:09:21;5.43;;;2.73;;
11211;SDS011;5663;50.864;12.096;2023-02-27T02:11:51;6.03;;;3.30;;
11211;SDS011;5663;50.864;12.096;2023-02-27T02:14:21;5.23;;;3.17;;
11211;SDS011;5663;50.864;12.096;2023-02-27T02:16:57;5.13;;;3.07;;
11211;SDS011;5663;50.864;12.096;2023-02-27T02:19:50;4.77;;;2.97;;
11211;SDS011;5663;50.864;12.096;2023-02-27T02:29:18;4.03;;;2.60;;
11211;SDS011;5663;50.864;12.096;2023-02-27T02:38:33;4.97;;;2.80;;
11211;SDS011;5663;50.864;12.096;2023-02-27T02:41:15;5.43;;;2.97;;
11211;SDS011;5663;50.864;12.096;2023-02-27T02:43:49;4.90;;;2.97;;
11211;SDS011;5663;50.864;12.096;2023-02-27T02:46:29;5.03;;;3.40;;
11211;SDS011;5663;50.864;12.096;2023-02-27T02:49:02;4.90;;;3.00;;
11211;SDS011;5663;50.864;12.096;2023-02-27T02:51:38;6.00;;;3.23;;
11211;SDS011;5663;50.864;12.096;2023-02-27T02:54:14;9.53;;;3.47;;
11211;SDS011;5663;50.864;12.096;2023-02-27T02:56:45;6.37;;;3.67;;
11211;SDS011;5663;50.864;12.096;2023-02-27T02:59:21;7.87;;;3.63;;
11211;SDS011;5663;50.864;12.096;2023-02-27T03:01:54;4.73;;;2.80;;
11211;SDS011;5663;50.864;12.096;2023-02-27T03:04:27;6.90;;;3.20;;
11211;SDS011;5663;50.864;12.096;2023-02-27T03:07:01;8.57;;;3.40;;
11211;SDS011;5663;50.864;12.096;2023-02-27T03:09:37;6.47;;;4.53;;
11211;SDS011;5663;50.864;12.096;2023-02-27T03:12:13;4.17;;;3.17;;
11211;SDS011;5663;50.864;12.096;2023-02-27T03:14:44;4.13;;;2.87;;
11211;SDS011;5663;50.864;12.096;2023-02-27T03:17:16;8.27;;;3.63;;
11211;SDS011;5663;50.864;12.096;2023-02-27T03:19:48;6.23;;;3.53;;
11211;SDS011;5663;50.864;12.096;2023-02-27T03:22:21;5.67;;;3.27;;
11211;SDS011;5663;50.864;12.096;2023-02-27T03:24:54;3.83;;;2.83;;
11211;SDS011;5663;50.864;12.096;2023-02-27T03:27:25;5.93;;;3.93;;
11211;SDS011;5663;50.864;12.096;2023-02-27T03:30:00;5.03;;;3.73;;
11211;SDS011;5663;50.864;12.096;2023-02-27T03:32:32;4.10;;;3.00;;
11211;SDS011;5663;50.864;12.096;2023-02-27T03:35:07;7.43;;;3.50;;
11211;SDS011;5663;50.864;12.096;2023-02-27T03:37:38;5.27;;;3.33;;
11211;SDS011;5663;50.864;12.096;2023-02-27T03:40:21;6.27;;;3.50;;
11211;SDS011;5663;50.864;12.096;2023-02-27T03:42:56;7.43;;;4.03;;
11211;SDS011;5663;50.864;12.096;2023-02-27T03:45:31;5.60;;;3.20;;
11211;SDS011;5663;50.864;12.096;2023-02-27T03:48:03;4.77;;;3.17;;
11211;SDS011;5663;50.864;12.096;2023-02-27T03:50:32;6.03;;;4.10;;
11211;SDS011;5663;50.864;12.096;2023-02-27T03:53:01;7.60;;;4.13;;
11211;SDS011;5663;50.864;12.096;2023-02-27T03:55:35;9.03;;;3.60;;
11211;SDS011;5663;50.864;12.096;2023-02-27T03:58:07;6.30;;;3.83;;
11211;SDS011;5663;50.864;12.096;2023-02-27T04:00:34;6.87;;;4.20;;
11211;SDS011;5663;50.864;12.096;2023-02-27T04:03:02;6.43;;;3.93;;
11211;SDS011;5663;50.864;12.096;2023-02-27T04:05:31;6.77;;;4.37;;
11211;SDS011;5663;50.864;12.096;2023-02-27T04:08:06;8.47;;;4.47;;
11211;SDS011;5663;50.864;12.096;2023-02-27T04:11:02;8.93;;;3.90;;
11211;SDS011;5663;50.864;12.096;2023-02-27T04:13:46;8.13;;;4.27;;
11211;SDS011;5663;50.864;12.096;2023-02-27T04:19:25;6.50;;;4.17;;
11211;SDS011;5663;50.864;12.096;2023-02-27T04:22:09;7.93;;;3.87;;
11211;SDS011;5663;50.864;12.096;2023-02-27T04:24:45;9.40;;;3.80;;
11211;SDS011;5663;50.864;12.096;2023-02-27T04:27:26;8.47;;;4.20;;
11211;SDS011;5663;50.864;12.096;2023-02-27T04:30:03;6.93;;;3.97;;
11211;SDS011;5663;50.864;12.096;2023-02-27T04:32:43;5.57;;;3.83;;
11211;SDS011;5663;50.864;12.096;2023-02-27T04:35:16;6.77;;;4.37;;
11211;SDS011;5663;50.864;12.096;2023-02-27T04:37:51;8.90;;;4.57;;
11211;SDS011;5663;50.864;12.096;2023-02-27T04:40:23;7.63;;;4.50;;
11211;SDS011;5663;50.864;12.096;2023-02-27T04:42:57;8.73;;;4.80;;
11211;SDS011;5663;50.864;12.096;2023-02-27T04:45:29;9.03;;;4.87;;
11211;SDS011;5663;50.864;12.096;2023-02-27T04:48:04;5.57;;;4.07;;
11211;SDS011;5663;50.864;12.096;2023-02-27T04:50:37;9.20;;;4.50;;
11211;SDS011;5663;50.864;12.096;2023-02-27T04:53:08;7.70;;;4.43;;
11211;SDS011;5663;50.864;12.096;2023-02-27T04:55:45;8.47;;;4.73;;
11211;SDS011;5663;50.864;12.096;2023-02-27T04:58:19;11.90;;;5.27;;
11211;SDS011;5663;50.864;12.096;2023-02-27T05:00:51;8.63;;;4.73;;
11211;SDS011;5663;50.864;12.096;2023-02-27T05:03:24;8.60;;;5.13;;
11211;SDS011;5663;50.864;12.096;2023-02-27T05:05:56;7.80;;;4.33;;
11211;SDS011;5663;50.864;12.096;2023-02-27T05:08:27;10.80;;;5.43;;
11211;SDS011;5663;50.864;12.096;2023-02-27T05:11:00;6.73;;;4.60;;
11211;SDS011;5663;50.864;12.096;2023-02-27T05:13:36;8.20;;;4.30;;
11211;SDS011;5663;50.864;12.096;2023-02-27T05:16:08;9.87;;;5.17;;
11211;SDS011;5663;50.864;12.096;2023-02-27T05:18:42;6.67;;;4.40;;
11211;SDS011;5663;50.864;12.096;2023-02-27T05:21:14;10.90;;;4.93;;
11211;SDS011;5663;50.864;12.096;2023-02-27T05:23:53;9.63;;;4.80;;
11211;SDS011;5663;50.864;12.096;2023-02-27T05:26:31;7.27;;;4.90;;
11211;SDS011;5663;50.864;12.096;2023-02-27T05:29:09;10.23;;;5.60;;
11211;SDS011;5663;50.864;12.096;2023-02-27T05:31:45;7.80;;;4.97;;
11211;SDS011;5663;50.864;12.096;2023-02-27T05:34:18;8.13;;;5.17;;
11211;SDS011;5663;50.864;12.096;2023-02-27T05:36:51;8.77;;;4.63;;
11211;SDS011;5663;50.864;12.096;2023-02-27T05:39:24;13.37;;;6.50;;
11211;SDS011;5663;50.864;12.096;2023-02-27T05:41:56;11.97;;;5.53;;
11211;SDS011;5663;50.864;12.096;2023-02-27T05:44:29;11.37;;;6.53;;
11211;SDS011;5663;50.864;12.096;2023-02-27T05:47:01;14.10;;;7.90;;
11211;SDS011;5663;50.864;12.096;2023-02-27T05:49:36;13.07;;;7.33;;
11211;SDS011;5663;50.864;12.096;2023-02-27T05:52:08;10.97;;;6.07;;
11211;SDS011;5663;50.864;12.096;2023-02-27T05:54:41;15.83;;;6.33;;
11211;SDS011;5663;50.864;12.096;2023-02-27T05:57:15;13.43;;;6.67;;
11211;SDS011;5663;50.864;12.096;2023-02-27T05:59:50;9.37;;;5.90;;
11211;SDS011;5663;50.864;12.096;2023-02-27T06:02:25;11.50;;;6.00;;
11211;SDS011;5663;50.864;12.096;2023-02-27T06:04:53;9.90;;;5.57;;
11211;SDS011;5663;50.864;12.096;2023-02-27T06:07:21;10.00;;;5.30;;
11211;SDS011;5663;50.864;12.096;2023-02-27T06:09:49;9.73;;;5.60;;
11211;SDS011;5663;50.864;12.096;2023-02-27T06:12:17;10.23;;;5.80;;
11211;SDS011;5663;50.864;12.096;2023-02-27T06:14:45;7.77;;;4.67;;
11211;SDS011;5663;50.864;12.096;2023-02-27T06:17:14;9.00;;;5.33;;
11211;SDS011;5663;50.864;12.096;2023-02-27T06:19:42;10.30;;;6.10;;
11211;SDS011;5663;50.864;12.096;2023-02-27T06:22:09;8.87;;;5.60;;
11211;SDS011;5663;50.864;12.096;2023-02-27T06:24:37;10.87;;;6.03;;
11211;SDS011;5663;50.864;12.096;2023-02-27T06:27:05;13.40;;;8.47;;
11211;SDS011;5663;50.864;12.096;2023-02-27T06:29:32;18.57;;;8.63;;
11211;SDS011;5663;50.864;12.096;2023-02-27T06:32:00;12.43;;;7.93;;
11211;SDS011;5663;50.864;12.096;2023-02-27T06:34:30;15.40;;;8.50;;
11211;SDS011;5663;50.864;12.096;2023-02-27T06:36:57;15.93;;;9.67;;
11211;SDS011;5663;50.864;12.096;2023-02-27T06:39:25;19.40;;;8.37;;
11211;SDS011;5663;50.864;12.096;2023-02-27T06:41:53;14.27;;;7.90;;
11211;SDS011;5663;50.864;12.096;2023-02-27T06:44:21;12.83;;;7.73;;
11211;SDS011;5663;50.864;12.096;2023-02-27T06:46:48;11.03;;;7.70;;
11211;SDS011;5663;50.864;12.096;2023-02-27T06:49:16;12.33;;;6.57;;
11211;SDS011;5663;50.864;12.096;2023-02-27T06:51:46;10.43;;;7.50;;
11211;SDS011;5663;50.864;12.096;2023-02-27T06:54:14;11.57;;;7.37;;
11211;SDS011;5663;50.864;12.096;2023-02-27T06:56:41;11.57;;;6.77;;
11211;SDS011;5663;50.864;12.096;2023-02-27T06:59:09;11.23;;;7.23;;
11211;SDS011;5663;50.864;12.096;2023-02-27T07:01:36;15.30;;;7.20;;
11211;SDS011;5663;50.864;12.096;2023-02-27T07:04:04;15.53;;;7.50;;
11211;SDS011;5663;50.864;12.096;2023-02-27T07:06:31;12.30;;;7.20;;
11211;SDS011;5663;50.864;12.096;2023-02-27T07:09:01;12.10;;;7.40;;
11211;SDS011;5663;50.864;12.096;2023-02-27T07:11:28;10.77;;;7.03;;
11211;SDS011;5663;50.864;12.096;2023-02-27T07:13:56;11.73;;;7.13;;
11211;SDS011;5663;50.864;12.096;2023-02-27T07:16:23;9.20;;;6.30;;
11211;SDS011;5663;50.864;12.096;2023-02-27T07:18:51;12.07;;;7.00;;
11211;SDS011;5663;50.864;12.096;2023-02-27T07:21:19;11.20;;;7.30;;
11211;SDS011;5663;50.864;12.096;2023-02-27T07:23:47;9.93;;;6.40;;
11211;SDS011;5663;50.864;12.096;2023-02-27T07:26:17;11.97;;;7.47;;
11211;SDS011;5663;50.864;12.096;2023-02-27T07:28:44;11.07;;;6.57;;
11211;SDS011;5663;50.864;12.096;2023-02-27T07:31:12;12.87;;;6.63;;
11211;SDS011;5663;50.864;12.096;2023-02-27T07:33:40;13.47;;;7.50;;
11211;SDS011;5663;50.864;12.096;2023-02-27T07:36:15;8.97;;;5.80;;
11211;SDS011;5663;50.864;12.096;2023-02-27T07:38:43;11.30;;;6.43;;
11211;SDS011;5663;50.864;12.096;2023-02-27T07:41:10;9.27;;;6.20;;
11211;SDS011;5663;50.864;12.096;2023-02-27T07:43:39;12.17;;;6.23;;
11211;SDS011;5663;50.864;12.096;2023-02-27T07:46:07;12.50;;;6.40;;
11211;SDS011;5663;50.864;12.096;2023-02-27T07:48:35;9.67;;;6.13;;
11211;SDS011;5663;50.864;12.096;2023-02-27T07:51:04;12.97;;;6.17;;
11211;SDS011;5663;50.864;12.096;2023-02-27T07:53:33;9.20;;;6.10;;
11211;SDS011;5663;50.864;12.096;2023-02-27T07:56:01;9.63;;;5.97;;
11211;SDS011;5663;50.864;12.096;2023-02-27T07:58:28;8.07;;;5.43;;
11211;SDS011;5663;50.864;12.096;2023-02-27T08:00:57;10.83;;;6.13;;
11211;SDS011;5663;50.864;12.096;2023-02-27T08:03:25;9.83;;;5.73;;
11211;SDS011;5663;50.864;12.096;2023-02-27T08:05:54;11.93;;;6.37;;
11211;SDS011;5663;50.864;12.096;2023-02-27T08:08:22;10.33;;;6.23;;
11211;SDS011;5663;50.864;12.096;2023-02-27T08:10:49;9.13;;;6.10;;
11211;SDS011;5663;50.864;12.096;2023-02-27T08:13:17;9.07;;;6.00;;
11211;SDS011;5663;50.864;12.096;2023-02-27T08:15:45;9.47;;;6.07;;
11211;SDS011;5663;50.864;12.096;2023-02-27T08:18:14;9.13;;;6.23;;
11211;SDS011;5663;50.864;12.096;2023-02-27T08:20:42;9.60;;;6.33;;
11211;SDS011;5663;50.864;12.096;2023-02-27T08:23:09;9.30;;;6.27;;
11211;SDS011;5663;50.864;12.096;2023-02-27T08:25:37;9.83;;;6.70;;
11211;SDS011;5663;50.864;12.096;2023-02-27T08:28:06;10.27;;;7.30;;
11211;SDS011;5663;50.864;12.096;2023-02-27T08:30:33;13.80;;;6.97;;
11211;SDS011;5663;50.864;12.096;2023-02-27T08:33:01;9.93;;;6.80;;
11211;SDS011;5663;50.864;12.096;2023-02-27T08:35:30;11.73;;;7.63;;
11211;SDS011;5663;50.864;12.096;2023-02-27T08:37:58;12.57;;;7.80;;
11211;SDS011;5663;50.864;12.096;2023-02-27T08:40:26;12.53;;;6.87;;
11211;SDS011;5663;50.864;12.096;2023-02-27T08:42:53;10.23;;;6.83;;
11211;SDS011;5663;50.864;12.096;2023-02-27T08:45:21;13.60;;;7.67;;
11211;SDS011;5663;50.864;12.096;2023-02-27T08:47:49;10.60;;;6.20;;
11211;SDS011;5663;50.864;12.096;2023-02-27T08:50:17;11.00;;;4.93;;
11211;SDS011;5663;50.864;12.096;2023-02-27T08:52:47;6.37;;;3.63;;
11211;SDS011;5663;50.864;12.096;2023-02-27T08:55:14;5.80;;;3.20;;
11211;SDS011;5663;50.864;12.096;2023-02-27T08:57:42;4.93;;;2.93;;
11211;SDS011;5663;50.864;12.096;2023-02-27T09:00:10;3.10;;;2.40;;
11211;SDS011;5663;50.864;12.096;2023-02-27T09:02:40;6.90;;;2.90;;
11211;SDS011;5663;50.864;12.096;2023-02-27T09:05:08;3.67;;;2.67;;
11211;SDS011;5663;50.864;12.096;2023-02-27T09:07:36;4.43;;;2.23;;
11211;SDS011;5663;50.864;12.096;2023-02-27T09:10:06;4.50;;;2.30;;
11211;SDS011;5663;50.864;12.096;2023-02-27T09:12:34;4.80;;;2.70;;
11211;SDS011;5663;50.864;12.096;2023-02-27T09:15:02;4.33;;;2.70;;
11211;SDS011;5663;50.864;12.096;2023-02-27T09:17:30;4.20;;;2.47;;
11211;SDS011;5663;50.864;12.096;2023-02-27T09:19:58;5.27;;;2.57;;
11211;SDS011;5663;50.864;12.096;2023-02-27T09:22:26;4.00;;;2.33;;
11211;SDS011;5663;50.864;12.096;2023-02-27T09:24:53;2.87;;;2.20;;
11211;SDS011;5663;50.864;12.096;2023-02-27T09:27:22;3.83;;;2.23;;
11211;SDS011;5663;50.864;12.096;2023-02-27T09:29:50;3.90;;;2.40;;
11211;SDS011;5663;50.864;12.096;2023-02-27T09:32:21;3.70;;;2.40;;
11211;SDS011;5663;50.864;12.096;2023-02-27T09:34:48;4.27;;;2.13;;
11211;SDS011;5663;50.864;12.096;2023-02-27T09:37:16;4.00;;;2.30;;
11211;SDS011;5663;50.864;12.096;2023-02-27T09:39:45;3.43;;;2.17;;
11211;SDS011;5663;50.864;12.096;2023-02-27T09:42:13;6.37;;;2.70;;
11211;SDS011;5663;50.864;12.096;2023-02-27T09:44:48;3.87;;;2.60;;
11211;SDS011;5663;50.864;12.096;2023-02-27T09:47:20;3.70;;;2.33;;
11211;SDS011;5663;50.864;12.096;2023-02-27T09:49:56;3.97;;;2.57;;
11211;SDS011;5663;50.864;12.096;2023-02-27T09:52:26;3.60;;;2.67;;
11211;SDS011;5663;50.864;12.096;2023-02-27T09:54:54;4.60;;;2.30;;
11211;SDS011;5663;50.864;12.096;2023-02-27T09:57:27;4.13;;;2.40;;
11211;SDS011;5663;50.864;12.096;2023-02-27T10:00:13;2.27;;;1.80;;
11211;SDS011;5663;50.864;12.096;2023-02-27T10:02:57;4.07;;;2.20;;
11211;SDS011;5663;50.864;12.096;2023-02-27T10:05:35;3.83;;;2.30;;
11211;SDS011;5663;50.864;12.096;2023-02-27T10:08:13;3.50;;;2.00;;
11211;SDS011;5663;50.864;12.096;2023-02-27T10:10:49;2.43;;;1.87;;
11211;SDS011;5663;50.864;12.096;2023-02-27T10:13:32;3.10;;;2.13;;
11211;SDS011;5663;50.864;12.096;2023-02-27T10:16:13;3.47;;;2.13;;
11211;SDS011;5663;50.864;12.096;2023-02-27T10:18:46;2.83;;;2.10;;
11211;SDS011;5663;50.864;12.096;2023-02-27T10:21:19;3.67;;;2.20;;
11211;SDS011;5663;50.864;12.096;2023-02-27T10:23:52;3.03;;;2.13;;
11211;SDS011;5663;50.864;12.096;2023-02-27T10:26:24;2.53;;;1.90;;
11211;SDS011;5663;50.864;12.096;2023-02-27T10:28:54;3.77;;;2.10;;
11211;SDS011;5663;50.864;12.096;2023-02-27T10:31:25;2.73;;;1.80;;
11211;SDS011;5663;50.864;12.096;2023-02-27T10:33:57;3.53;;;2.00;;
11211;SDS011;5663;50.864;12.096;2023-02-27T10:36:27;2.17;;;1.87;;
11211;SDS011;5663;50.864;12.096;2023-02-27T10:38:57;2.80;;;2.20;;
11211;SDS011;5663;50.864;12.096;2023-02-27T10:41:28;3.27;;;2.13;;
11211;SDS011;5663;50.864;12.096;2023-02-27T10:43:56;4.40;;;2.20;;
11211;SDS011;5663;50.864;12.096;2023-02-27T10:46:27;3.60;;;2.23;;
11211;SDS011;5663;50.864;12.096;2023-02-27T10:48:58;5.87;;;3.23;;
11211;SDS011;5663;50.864;12.096;2023-02-27T10:51:27;3.03;;;2.30;;
11211;SDS011;5663;50.864;12.096;2023-02-27T10:54:18;6.97;;;2.77;;
11211;SDS011;5663;50.864;12.096;2023-02-27T10:56:48;4.60;;;2.17;;
11211;SDS011;5663;50.864;12.096;2023-02-27T10:59:20;3.13;;;2.10;;
11211;SDS011;5663;50.864;12.096;2023-02-27T11:01:52;3.73;;;2.17;;
11211;SDS011;5663;50.864;12.096;2023-02-27T11:04:25;3.07;;;1.97;;
11211;SDS011;5663;50.864;12.096;2023-02-27T11:06:57;4.13;;;1.90;;
11211;SDS011;5663;50.864;12.096;2023-02-27T11:09:27;3.10;;;2.10;;
11211;SDS011;5663;50.864;12.096;2023-02-27T11:12:08;2.53;;;1.97;;
11211;SDS011;5663;50.864;12.096;2023-02-27T11:14:46;6.60;;;2.60;;
11211;SDS011;5663;50.864;12.096;2023-02-27T11:17:21;3.97;;;2.30;;
11211;SDS011;5663;50.864;12.096;2023-02-27T11:19:51;4.63;;;2.20;;
11211;SDS011;5663;50.864;12.096;2023-02-27T11:22:20;3.33;;;2.00;;
11211;SDS011;5663;50.864;12.096;2023-02-27T11:24:49;3.30;;;2.30;;
11211;SDS011;5663;50.864;12.096;2023-02-27T11:27:18;2.33;;;1.90;;
11211;SDS011;5663;50.864;12.096;2023-02-27T11:29:55;4.90;;;2.20;;
11211;SDS011;5663;50.864;12.096;2023-02-27T11:32:26;2.60;;;2.10;;
11211;SDS011;5663;50.864;12.096;2023-02-27T11:35:01;3.87;;;2.10;;
11211;SDS011;5663;50.864;12.096;2023-02-27T11:37:31;4.53;;;1.90;;
11211;SDS011;5663;50.864;12.096;2023-02-27T11:40:10;4.07;;;1.90;;
11211;SDS011;5663;50.864;12.096;2023-02-27T11:42:43;2.77;;;1.87;;
11211;SDS011;5663;50.864;12.096;2023-02-27T11:48:07;5.43;;;2.53;;
11211;SDS011;5663;50.864;12.096;2023-02-27T11:50:44;4.17;;;2.20;;
11211;SDS011;5663;50.864;12.096;2023-02-27T11:56:16;3.30;;;2.20;;
11211;SDS011;5663;50.864;12.096;2023-02-27T11:58:51;3.50;;;2.00;;
11211;SDS011;5663;50.864;12.096;2023-02-27T12:01:27;2.77;;;1.90;;
11211;SDS011;5663;50.864;12.096;2023-02-27T12:04:01;2.10;;;1.57;;
11211;SDS011;5663;50.864;12.096;2023-02-27T12:06:37;2.23;;;2.00;;
11211;SDS011;5663;50.864;12.096;2023-02-27T12:09:12;2.43;;;1.70;;
11211;SDS011;5663;50.864;12.096;2023-02-27T12:11:59;2.53;;;1.80;;
11211;SDS011;5663;50.864;12.096;2023-02-27T12:14:30;2.30;;;1.70;;
11211;SDS011;5663;50.864;12.096;2023-02-27T12:17:07;4.43;;;2.50;;
11211;SDS011;5663;50.864;12.096;2023-02-27T12:19:45;3.03;;;2.00;;
11211;SDS011;5663;50.864;12.096;2023-02-27T12:22:23;3.37;;;2.17;;
11211;SDS011;5663;50.864;12.096;2023-02-27T12:24:55;3.07;;;2.10;;
11211;SDS011;5663;50.864;12.096;2023-02-27T12:27:28;3.60;;;2.30;;
11211;SDS011;5663;50.864;12.096;2023-02-27T12:30:11;5.63;;;2.10;;
11211;SDS011;5663;50.864;12.096;2023-02-27T12:32:42;2.40;;;2.00;;
11211;SDS011;5663;50.864;12.096;2023-02-27T12:35:15;4.73;;;2.37;;
11211;SDS011;5663;50.864;12.096;2023-02-27T12:37:46;5.57;;;2.90;;
11211;SDS011;5663;50.864;12.096;2023-02-27T12:40:14;3.77;;;2.03;;
11211;SDS011;5663;50.864;12.096;2023-02-27T12:42:50;3.30;;;2.13;;
11211;SDS011;5663;50.864;12.096;2023-02-27T12:45:38;4.43;;;1.80;;
11211;SDS011;5663;50.864;12.096;2023-02-27T12:48:31;4.40;;;2.00;;
11211;SDS011;5663;50.864;12.096;2023-02-27T12:51:14;2.90;;;2.07;;
11211;SDS011;5663;50.864;12.096;2023-02-27T12:53:57;4.20;;;2.47;;
11211;SDS011;5663;50.864;12.096;2023-02-27T12:56:48;3.47;;;2.30;;
11211;SDS011;5663;50.864;12.096;2023-02-27T12:59:38;4.47;;;1.97;;
11211;SDS011;5663;50.864;12.096;2023-02-27T13:02:20;2.93;;;1.90;;
11211;SDS011;5663;50.864;12.096;2023-02-27T13:05:02;4.37;;;2.10;;
11211;SDS011;5663;50.864;12.096;2023-02-27T13:07:41;4.17;;;2.10;;
11211;SDS011;5663;50.864;12.096;2023-02-27T13:10:21;4.90;;;2.20;;
11211;SDS011;5663;50.864;12.096;2023-02-27T13:12:56;3.50;;;2.20;;
11211;SDS011;5663;50.864;12.096;2023-02-27T13:15:32;3.67;;;2.40;;
11211;SDS011;5663;50.864;12.096;2023-02-27T13:18:07;4.40;;;2.10;;
11211;SDS011;5663;50.864;12.096;2023-02-27T13:20:43;2.37;;;2.00;;
11211;SDS011;5663;50.864;12.096;2023-02-27T13:23:19;4.47;;;2.20;;
11211;SDS011;5663;50.864;12.096;2023-02-27T13:25:52;3.43;;;2.07;;
11211;SDS011;5663;50.864;12.096;2023-02-27T13:28:24;3.67;;;2.13;;
11211;SDS011;5663;50.864;12.096;2023-02-27T13:30:57;4.10;;;1.80;;
11211;SDS011;5663;50.864;12.096;2023-02-27T13:33:33;2.30;;;1.87;;
11211;SDS011;5663;50.864;12.096;2023-02-27T13:36:11;4.70;;;2.00;;
11211;SDS011;5663;50.864;12.096;2023-02-27T13:38:47;5.00;;;2.40;;
11211;SDS011;5663;50.864;12.096;2023-02-27T13:41:35;3.60;;;2.07;;
11211;SDS011;5663;50.864;12.096;2023-02-27T13:53:17;3.67;;;2.00;;
11211;SDS011;5663;50.864;12.096;2023-02-27T13:55:54;3.50;;;1.90;;
11211;SDS011;5663;50.864;12.096;2023-02-27T13:58:25;2.20;;;1.70;;
11211;SDS011;5663;50.864;12.096;2023-02-27T14:00:57;2.97;;;1.63;;
11211;SDS011;5663;50.864;12.096;2023-02-27T14:03:28;2.43;;;1.60;;
11211;SDS011;5663;50.864;12.096;2023-02-27T14:05:59;3.83;;;1.80;;
11211;SDS011;5663;50.864;12.096;2023-02-27T14:08:31;5.10;;;2.17;;
11211;SDS011;5663;50.864;12.096;2023-02-27T14:11:14;4.20;;;2.27;;
11211;SDS011;5663;50.864;12.096;2023-02-27T14:14:01;2.97;;;1.87;;
11211;SDS011;5663;50.864;12.096;2023-02-27T14:16:50;3.20;;;1.70;;
11211;SDS011;5663;50.864;12.096;2023-02-27T14:19:26;2.20;;;1.60;;
11211;SDS011;5663;50.864;12.096;2023-02-27T14:22:32;2.03;;;1.20;;
11211;SDS011;5663;50.864;12.096;2023-02-27T14:25:19;3.20;;;1.50;;
11211;SDS011;5663;50.864;12.096;2023-02-27T14:27:54;2.57;;;1.57;;
11211;SDS011;5663;50.864;12.096;2023-02-27T14:30:25;3.50;;;1.87;;
11211;SDS011;5663;50.864;12.096;2023-02-27T14:33:11;4.53;;;1.90;;
11211;SDS011;5663;50.864;12.096;2023-02-27T14:35:45;4.37;;;1.70;;
11211;SDS011;5663;50.864;12.096;2023-02-27T14:38:16;4.27;;;1.60;;
11211;SDS011;5663;50.864;12.096;2023-02-27T14:40:49;1.57;;;1.47;;
11211;SDS011;5663;50.864;12.096;2023-02-27T14:43:36;1.67;;;1.57;;
11211;SDS011;5663;50.864;12.096;2023-02-27T14:46:10;2.53;;;1.53;;
11211;SDS011;5663;50.864;12.096;2023-02-27T14:48:40;2.10;;;1.70;;
11211;SDS011;5663;50.864;12.096;2023-02-27T14:51:09;2.67;;;1.80;;
11211;SDS011;5663;50.864;12.096;2023-02-27T14:53:37;4.30;;;1.90;;
11211;SDS011;5663;50.864;12.096;2023-02-27T14:56:05;3.27;;;1.80;;
11211;SDS011;5663;50.864;12.096;2023-02-27T14:58:32;3.23;;;1.87;;
11211;SDS011;5663;50.864;12.096;2023-02-27T15:01:06;3.07;;;2.00;;
11211;SDS011;5663;50.864;12.096;2023-02-27T15:03:37;3.10;;;1.80;;
11211;SDS011;5663;50.864;12.096;2023-02-27T15:06:12;2.60;;;1.67;;
11211;SDS011;5663;50.864;12.096;2023-02-27T15:08:44;2.03;;;1.33;;
11211;SDS011;5663;50.864;12.096;2023-02-27T15:11:15;2.83;;;1.90;;
11211;SDS011;5663;50.864;12.096;2023-02-27T15:13:46;2.83;;;1.80;;
11211;SDS011;5663;50.864;12.096;2023-02-27T15:16:19;6.50;;;1.90;;
11211;SDS011;5663;50.864;12.096;2023-02-27T15:18:57;4.07;;;2.00;;
11211;SDS011;5663;50.864;12.096;2023-02-27T15:21:28;4.53;;;1.90;;
11211;SDS011;5663;50.864;12.096;2023-02-27T15:23:58;2.90;;;2.00;;
11211;SDS011;5663;50.864;12.096;2023-02-27T15:26:29;3.27;;;1.97;;
11211;SDS011;5663;50.864;12.096;2023-02-27T15:29:01;2.67;;;1.70;;
11211;SDS011;5663;50.864;12.096;2023-02-27T15:31:32;4.40;;;2.07;;
11211;SDS011;5663;50.864;12.096;2023-02-27T15:34:01;4.73;;;2.20;;
11211;SDS011;5663;50.864;12.096;2023-02-27T15:36:30;4.37;;;2.10;;
11211;SDS011;5663;50.864;12.096;2023-02-27T15:39:03;2.47;;;2.07;;
11211;SDS011;5663;50.864;12.096;2023-02-27T15:41:33;4.03;;;2.07;;
11211;SDS011;5663;50.864;12.096;2023-02-27T15:44:01;3.67;;;1.90;;
11211;SDS011;5663;50.864;12.096;2023-02-27T15:46:31;2.93;;;1.63;;
11211;SDS011;5663;50.864;12.096;2023-02-27T15:49:00;2.40;;;1.67;;